Time;durP1;ratioP1;P1;durP2;ratioP2;P2;SDS_P1;SDS_P2;PMS_P1;PMS_P2;Temp;Humidity;BMP_temperature;BMP_pressure;BME280_temperature;BME280_humidity;BME280_pressure;Samples;Min_cycle;Max_cycle;Signal;HPM_P1;HPM_P2
2023/01/05 00:01:44;;;;;;;26.25;4.68;;;9.70;99.90;;;;;;4997435;28;20042;-79
2023/01/05 00:04:11;;;;;;;23.25;4.57;;;9.70;99.90;;;;;;4980958;28;20389;-79
2023/01/05 00:06:38;;;;;;;26.38;6.03;;;9.70;99.90;;;;;;4981178;28;20042;-79
2023/01/05 00:09:04;;;;;;;25.88;5.82;;;9.70;99.90;;;;;;4971862;28;20117;-80
2023/01/05 00:22:35;;;;;;;25.92;4.90;;;9.70;99.90;;;;;;4979269;28;20070;-80
2023/01/05 00:25:05;;;;;;;26.05;5.72;;;9.70;99.90;;;;;;4979589;28;20038;-80
2023/01/05 00:27:32;;;;;;;28.20;5.10;;;9.70;99.90;;;;;;4978067;28;20393;-77
2023/01/05 00:29:58;;;;;;;19.80;4.75;;;9.70;99.90;;;;;;4997242;28;20064;-80
2023/01/05 00:32:25;;;;;;;24.00;5.40;;;9.60;99.90;;;;;;4998179;28;20551;-80
2023/01/05 00:34:54;;;;;;;26.83;6.45;;;9.60;99.90;;;;;;4996903;28;20062;-78
2023/01/05 00:37:22;;;;;;;30.38;7.28;;;9.60;99.90;;;;;;4997742;28;20038;-79
2023/01/05 00:39:47;;;;;;;23.88;5.22;;;9.60;99.90;;;;;;4997104;28;20049;-80
2023/01/05 00:42:13;;;;;;;24.70;5.13;;;9.60;99.90;;;;;;4998621;28;20038;-79
2023/01/05 00:44:38;;;;;;;26.85;5.93;;;9.60;99.90;;;;;;4983019;28;20084;-80
2023/01/05 00:47:04;;;;;;;28.63;6.43;;;9.60;99.90;;;;;;4998332;28;20042;-80
2023/01/05 00:49:30;;;;;;;26.00;5.45;;;9.60;99.90;;;;;;4998151;28;20030;-80
2023/01/05 00:51:55;;;;;;;27.85;5.28;;;9.60;99.90;;;;;;4983991;28;20404;-79
2023/01/05 00:54:21;;;;;;;27.38;4.95;;;9.60;99.90;;;;;;4983433;28;20034;-79
2023/01/05 00:56:49;;;;;;;28.70;6.15;;;9.60;99.90;;;;;;4984083;28;20060;-81
2023/01/05 00:59:16;;;;;;;26.55;5.68;;;9.60;99.90;;;;;;4996080;28;20114;-78
2023/01/05 01:01:45;;;;;;;25.90;6.05;;;9.60;99.90;;;;;;4983936;28;20046;-79
2023/01/05 01:04:11;;;;;;;27.48;4.65;;;9.60;99.90;;;;;;4999731;28;20050;-80
2023/01/05 01:06:37;;;;;;;31.80;5.97;;;9.70;99.90;;;;;;5000304;28;20049;-79
2023/01/05 01:09:03;;;;;;;26.17;4.57;;;9.60;99.90;;;;;;4998308;28;20034;-80
2023/01/05 01:11:28;;;;;;;24.83;5.35;;;9.60;99.90;;;;;;5000890;28;20061;-80
2023/01/05 01:13:54;;;;;;;29.20;6.15;;;9.60;99.90;;;;;;5000754;28;20106;-80
2023/01/05 01:16:20;;;;;;;26.38;5.60;;;9.60;99.90;;;;;;5000501;28;20038;-78
2023/01/05 01:18:46;;;;;;;24.25;5.80;;;9.60;99.90;;;;;;4983927;28;20042;-79
2023/01/05 01:21:11;;;;;;;25.00;4.80;;;9.60;99.90;;;;;;4988956;28;20072;-80
2023/01/05 01:23:37;;;;;;;21.85;4.65;;;9.60;99.90;;;;;;5006234;28;20041;-80
2023/01/05 01:26:08;;;;;;;27.23;4.55;;;9.50;99.90;;;;;;5001433;28;20042;-80
2023/01/05 01:28:34;;;;;;;26.92;5.47;;;9.50;99.90;;;;;;4978303;28;20038;-79
2023/01/05 01:31:01;;;;;;;28.77;5.57;;;9.50;99.90;;;;;;4981690;28;20110;-79
2023/01/05 01:33:27;;;;;;;22.85;5.40;;;9.50;99.90;;;;;;4964472;28;20069;-80
2023/01/05 01:35:53;;;;;;;29.20;5.22;;;9.50;99.90;;;;;;4980595;28;20397;-79
2023/01/05 01:38:19;;;;;;;21.70;4.68;;;9.40;99.90;;;;;;4990403;28;20089;-79
2023/01/05 01:40:46;;;;;;;27.40;5.35;;;9.50;99.90;;;;;;4997157;28;20037;-78
2023/01/05 01:43:13;;;;;;;25.92;6.03;;;9.40;99.90;;;;;;5000412;28;20091;-79
2023/01/05 01:45:39;;;;;;;17.88;4.03;;;9.40;99.90;;;;;;5000530;28;20049;-80
2023/01/05 01:48:06;;;;;;;25.33;5.47;;;9.40;99.90;;;;;;4980996;28;20042;-78
2023/01/05 01:50:43;;;;;;;25.33;5.65;;;9.50;99.90;;;;;;4983642;28;20038;-80
2023/01/05 01:53:24;;;;;;;22.63;4.90;;;9.40;99.90;;;;;;4999889;28;20152;-79
2023/01/05 01:55:51;;;;;;;22.92;5.32;;;9.50;99.90;;;;;;4985431;28;20499;-81
2023/01/05 01:58:20;;;;;;;22.02;5.35;;;9.50;99.90;;;;;;4980510;28;20121;-79
2023/01/05 02:00:46;;;;;;;23.73;5.07;;;9.50;99.90;;;;;;4999245;28;20038;-79
2023/01/05 02:03:12;;;;;;;23.10;5.25;;;9.50;99.90;;;;;;4983777;28;20049;-80
2023/01/05 02:05:38;;;;;;;23.77;4.30;;;9.50;99.90;;;;;;5000720;28;20050;-80
2023/01/05 02:08:11;;;;;;;22.25;4.70;;;9.50;99.90;;;;;;4997661;28;20145;-79
2023/01/05 02:10:56;;;;;;;;;;;9.50;99.90;;;;;;5001248;28;20045;-80
2023/01/05 02:13:55;;;;;;;21.40;3.78;;;9.50;99.90;;;;;;4971768;28;20280;-80
2023/01/05 02:16:44;;;;;;;25.30;4.53;;;9.50;99.90;;;;;;4981895;28;20120;-79
2023/01/05 02:19:16;;;;;;;22.45;4.32;;;9.50;99.90;;;;;;4998001;28;20046;-80
2023/01/05 02:21:47;;;;;;;21.95;5.00;;;9.50;99.90;;;;;;5000866;28;20447;-79
2023/01/05 02:24:50;;;;;;;25.80;5.35;;;9.50;99.90;;;;;;4984870;28;20045;-80
2023/01/05 02:27:31;;;;;;;21.33;4.97;;;9.50;99.90;;;;;;4984188;28;20070;-77
2023/01/05 02:30:32;;;;;;;27.58;4.90;;;9.50;99.90;;;;;;4984533;28;20484;-80
2023/01/05 02:33:10;;;;;;;19.27;4.18;;;9.50;99.90;;;;;;4984032;28;20584;-80
2023/01/05 02:35:55;;;;;;;20.60;4.60;;;9.50;99.90;;;;;;4984593;28;20079;-80
2023/01/05 02:38:37;;;;;;;25.63;5.38;;;9.50;99.90;;;;;;4975665;28;20120;-79
2023/01/05 02:41:12;;;;;;;24.40;5.10;;;9.50;99.90;;;;;;4999303;28;20057;-80
2023/01/05 02:43:37;;;;;;;21.08;4.88;;;9.50;99.90;;;;;;4984144;28;20038;-80
2023/01/05 02:46:03;;;;;;;21.08;3.92;;;9.50;99.90;;;;;;4986058;28;20503;-80
2023/01/05 02:48:30;;;;;;;24.15;4.55;;;9.50;99.90;;;;;;4972137;28;20038;-81
2023/01/05 02:51:01;;;;;;;22.55;4.47;;;9.50;99.90;;;;;;4972578;28;20042;-78
2023/01/05 02:53:30;;;;;;;28.08;5.50;;;9.50;99.90;;;;;;4973157;28;20043;-81
2023/01/05 02:56:08;;;;;;;23.90;4.88;;;9.40;99.90;;;;;;4980785;28;20065;-80
2023/01/05 02:58:46;;;;;;;21.20;4.30;;;9.50;99.90;;;;;;4984226;28;20042;-81
2023/01/05 03:01:18;;;;;;;20.35;4.07;;;9.50;99.90;;;;;;4977740;28;20034;-80
2023/01/05 03:04:04;;;;;;;20.00;4.40;;;9.50;99.90;;;;;;4973613;28;20042;-80
2023/01/05 03:06:45;;;;;;;22.17;4.57;;;9.50;99.90;;;;;;5000060;28;20034;-80
2023/01/05 03:09:14;;;;;;;22.42;4.82;;;9.50;99.90;;;;;;4973926;28;20117;-81
2023/01/05 03:14:56;;;;;;;19.85;4.72;;;9.50;99.90;;;;;;5006681;28;20109;-79
2023/01/05 03:17:31;;;;;;;20.80;4.03;;;9.50;99.90;;;;;;4984307;28;20129;-79
2023/01/05 03:19:58;;;;;;;17.27;3.88;;;9.40;99.90;;;;;;4987604;28;20077;-80
2023/01/05 03:36:58;;;;;;;26.52;5.18;;;9.50;99.90;;;;;;4994544;28;20045;-80
2023/01/05 03:39:26;;;;;;;19.25;4.25;;;9.50;99.90;;;;;;4982766;28;20512;-80
2023/01/05 03:41:53;;;;;;;16.95;3.90;;;9.50;99.90;;;;;;4998864;28;20046;-80
2023/01/05 03:44:19;;;;;;;22.25;5.00;;;9.40;99.90;;;;;;4997564;28;20099;-81
2023/01/05 03:46:45;;;;;;;16.77;4.72;;;9.40;99.90;;;;;;4995525;28;20046;-80
2023/01/05 03:49:10;;;;;;;20.77;4.53;;;9.40;99.90;;;;;;5002709;23;20038;-73
2023/01/05 03:51:36;;;;;;;21.50;4.60;;;9.40;99.90;;;;;;4976363;28;20096;-73
2023/01/05 03:54:02;;;;;;;22.45;4.13;;;9.40;99.90;;;;;;4986773;28;20037;-73
2023/01/05 03:56:27;;;;;;;18.02;4.32;;;9.50;99.90;;;;;;5007538;28;20073;-73
2023/01/05 03:58:53;;;;;;;20.70;4.20;;;9.40;99.90;;;;;;4978525;28;20041;-73
2023/01/05 04:01:18;;;;;;;25.20;5.13;;;9.50;99.90;;;;;;4955289;28;20397;-73
2023/01/05 04:03:44;;;;;;;19.63;4.35;;;9.60;99.90;;;;;;4944085;28;20051;-73
2023/01/05 04:06:10;;;;;;;21.85;4.50;;;9.50;99.90;;;;;;4964925;28;20056;-73
2023/01/05 04:08:35;;;;;;;20.15;4.07;;;9.40;99.90;;;;;;4958109;28;20549;-73
2023/01/05 04:11:16;;;;;;;17.52;4.80;;;9.50;99.90;;;;;;4944976;28;20049;-72
2023/01/05 04:13:42;;;;;;;21.00;4.70;;;9.60;99.90;;;;;;4975157;28;20038;-73
2023/01/05 04:16:09;;;;;;;22.38;4.38;;;9.50;99.90;;;;;;4974307;28;20068;-73
2023/01/05 04:18:34;;;;;;;18.00;3.95;;;9.50;99.90;;;;;;4971712;28;20082;-72
2023/01/05 04:21:00;;;;;;;24.10;4.88;;;9.50;99.90;;;;;;4972416;28;20125;-73
2023/01/05 04:23:26;;;;;;;20.13;4.35;;;9.50;99.90;;;;;;4952519;28;20494;-73
2023/01/05 04:25:51;;;;;;;23.85;5.15;;;9.50;99.90;;;;;;4958437;28;20408;-73
2023/01/05 04:28:17;;;;;;;19.25;4.38;;;9.50;99.90;;;;;;4966487;28;20041;-73
2023/01/05 04:30:43;;;;;;;18.70;4.20;;;9.50;99.90;;;;;;4974032;28;20046;-72
2023/01/05 04:33:09;;;;;;;19.45;3.95;;;9.50;99.90;;;;;;4950041;28;20083;-72
2023/01/05 04:35:35;;;;;;;16.25;3.47;;;9.50;99.90;;;;;;4958686;28;20038;-73
2023/01/05 04:38:01;;;;;;;20.65;4.35;;;9.50;99.90;;;;;;4980288;28;20044;-73
2023/01/05 04:40:26;;;;;;;19.65;4.38;;;9.50;99.90;;;;;;4967356;28;20046;-73
2023/01/05 04:42:52;;;;;;;23.25;4.43;;;9.50;99.90;;;;;;4958685;28;20050;-73
2023/01/05 04:45:18;;;;;;;15.52;3.78;;;9.50;99.90;;;;;;4958560;28;20042;-75
2023/01/05 04:47:43;;;;;;;21.38;4.57;;;9.50;99.90;;;;;;4970298;28;20047;-75
2023/01/05 04:50:09;;;;;;;20.77;4.30;;;9.60;99.90;;;;;;4980374;28;20049;-75
2023/01/05 04:52:35;;;;;;;16.65;3.25;;;9.50;99.90;;;;;;4959474;28;20300;-75
2023/01/05 04:55:00;;;;;;;20.40;4.35;;;9.50;99.90;;;;;;4977029;28;20030;-75
2023/01/05 04:57:26;;;;;;;18.48;4.05;;;9.50;99.90;;;;;;4979650;28;20046;-75
2023/01/05 04:59:52;;;;;;;22.13;4.53;;;9.50;99.90;;;;;;4977891;28;20066;-75
2023/01/05 05:02:17;;;;;;;23.23;4.72;;;9.50;99.90;;;;;;4978660;28;20129;-73
2023/01/05 05:04:43;;;;;;;22.65;4.68;;;9.50;99.90;;;;;;4960951;28;20054;-73
2023/01/05 05:07:09;;;;;;;21.13;4.40;;;9.50;99.90;;;;;;4974502;28;20057;-73
2023/01/05 05:09:34;;;;;;;24.13;4.05;;;9.60;99.90;;;;;;4966572;28;20049;-73
2023/01/05 05:12:00;;;;;;;19.13;4.88;;;9.50;99.90;;;;;;4953470;28;20405;-73
2023/01/05 05:14:26;;;;;;;18.10;4.30;;;9.50;99.90;;;;;;4960960;28;20030;-73
2023/01/05 05:16:51;;;;;;;19.48;3.97;;;9.50;99.90;;;;;;4974593;28;20078;-73
2023/01/05 05:19:17;;;;;;;15.63;3.78;;;9.50;99.90;;;;;;4984332;28;20054;-73
2023/01/05 05:21:42;;;;;;;21.10;4.40;;;9.50;99.90;;;;;;4962133;28;20046;-73
2023/01/05 05:24:08;;;;;;;19.80;4.53;;;9.50;99.90;;;;;;4962165;28;20046;-73
2023/01/05 05:26:34;;;;;;;20.38;4.40;;;9.50;99.90;;;;;;4972785;28;20089;-73
2023/01/05 05:28:59;;;;;;;18.80;4.05;;;9.50;99.90;;;;;;4966803;28;20412;-73
2023/01/05 05:31:25;;;;;;;25.45;4.93;;;9.50;99.90;;;;;;4951144;28;20047;-73
2023/01/05 05:33:51;;;;;;;24.23;4.80;;;9.50;99.90;;;;;;4974569;28;20114;-73
2023/01/05 05:36:16;;;;;;;14.38;3.58;;;9.50;99.90;;;;;;4959594;28;20744;-73
2023/01/05 05:38:43;;;;;;;18.55;3.63;;;9.50;99.90;;;;;;4969475;28;20485;-73
2023/01/05 05:41:09;;;;;;;18.20;4.60;;;9.50;99.90;;;;;;4975790;28;20120;-73
2023/01/05 05:43:34;;;;;;;18.13;4.93;;;9.50;99.90;;;;;;4961827;28;20550;-73
2023/01/05 05:46:00;;;;;;;18.52;4.47;;;9.50;99.90;;;;;;4959911;28;20039;-73
2023/01/05 05:48:25;;;;;;;16.38;4.30;;;9.50;99.90;;;;;;4977233;28;20100;-72
2023/01/05 05:50:51;;;;;;;25.80;4.78;;;9.50;99.90;;;;;;4976696;28;20121;-73
2023/01/05 05:53:17;;;;;;;20.13;4.78;;;9.50;99.90;;;;;;4961575;28;20034;-73
2023/01/05 05:55:46;;;;;;;23.00;4.72;;;9.50;99.90;;;;;;4959724;28;20043;-73
2023/01/05 05:58:11;;;;;;;20.10;4.75;;;9.50;99.90;;;;;;4976986;28;20038;-73
2023/01/05 06:00:37;;;;;;;27.58;4.97;;;9.50;99.90;;;;;;4965641;28;20044;-73
2023/01/05 06:03:03;;;;;;;19.67;4.65;;;9.50;99.90;;;;;;4973165;28;20054;-73
2023/01/05 06:05:29;;;;;;;17.90;3.97;;;9.60;99.90;;;;;;4983504;28;20034;-73
2023/01/05 06:07:54;;;;;;;20.75;5.05;;;9.50;99.90;;;;;;4971117;28;20046;-73
2023/01/05 06:10:20;;;;;;;18.88;4.00;;;9.50;99.90;;;;;;4993709;28;20057;-73
2023/01/05 06:12:48;;;;;;;21.00;4.13;;;9.50;99.90;;;;;;4976292;28;20132;-75
2023/01/05 06:15:14;;;;;;;20.77;4.10;;;9.50;99.90;;;;;;4975346;28;20034;-72
2023/01/05 06:17:40;;;;;;;15.60;3.80;;;9.50;99.90;;;;;;4992640;28;20038;-73
2023/01/05 06:20:08;;;;;;;20.05;4.18;;;9.50;99.90;;;;;;4957471;28;20420;-76
2023/01/05 06:22:34;;;;;;;19.50;3.85;;;9.50;99.90;;;;;;4962049;28;20500;-75
2023/01/05 06:24:59;;;;;;;17.88;3.75;;;9.50;99.90;;;;;;4977739;28;20038;-75
2023/01/05 06:27:25;;;;;;;20.25;3.88;;;9.50;99.90;;;;;;4969675;28;20079;-73
2023/01/05 06:29:50;;;;;;;20.10;4.40;;;9.50;99.90;;;;;;4970713;28;20086;-74
2023/01/05 06:32:16;;;;;;;22.30;4.30;;;9.40;99.90;;;;;;4984463;28;20430;-74
2023/01/05 06:34:42;;;;;;;19.38;4.10;;;9.50;99.90;;;;;;4984531;28;20284;-74
2023/01/05 06:37:07;;;;;;;20.33;4.20;;;9.50;99.90;;;;;;4968493;28;20034;-75
2023/01/05 06:39:33;;;;;;;18.52;4.13;;;9.50;99.90;;;;;;4963383;28;20102;-78
2023/01/05 06:41:59;;;;;;;20.40;4.20;;;9.50;99.90;;;;;;4961571;28;20096;-77
2023/01/05 06:44:24;;;;;;;21.33;4.25;;;9.50;99.90;;;;;;4961823;28;20045;-77
2023/01/05 06:46:50;;;;;;;20.17;3.50;;;9.50;99.90;;;;;;4961924;28;20106;-78
2023/01/05 06:49:16;;;;;;;16.92;3.80;;;9.50;99.90;;;;;;4960556;28;20027;-77
2023/01/05 06:51:41;;;;;;;15.95;3.20;;;9.50;99.90;;;;;;4951951;28;20065;-77
2023/01/05 06:54:07;;;;;;;19.38;4.38;;;9.50;99.90;;;;;;4970294;28;20034;-77
2023/01/05 06:56:33;;;;;;;18.95;3.95;;;9.60;99.90;;;;;;4977818;28;20499;-77
2023/01/05 06:58:58;;;;;;;17.08;3.80;;;9.50;99.90;;;;;;4960189;28;20050;-78
2023/01/05 07:01:24;;;;;;;18.02;3.88;;;9.50;99.90;;;;;;4953430;28;20034;-77
2023/01/05 07:03:49;;;;;;;21.23;4.15;;;9.50;99.90;;;;;;4994088;28;20188;-79
2023/01/05 07:06:15;;;;;;;16.38;4.07;;;9.50;99.90;;;;;;4966347;28;20444;-74
2023/01/05 07:08:41;;;;;;;18.88;3.92;;;9.50;99.90;;;;;;4957091;28;20043;-75
2023/01/05 07:11:07;;;;;;;19.70;4.90;;;9.50;99.90;;;;;;4985502;28;20218;-75
2023/01/05 07:13:33;;;;;;;15.25;3.53;;;9.50;99.90;;;;;;4976219;28;20129;-75
2023/01/05 07:15:58;;;;;;;16.10;4.03;;;9.50;99.90;;;;;;4959192;28;20073;-74
2023/01/05 07:18:24;;;;;;;14.88;3.25;;;9.50;99.90;;;;;;4957824;28;20129;-74
2023/01/05 07:20:49;;;;;;;21.95;4.85;;;9.50;99.90;;;;;;4956020;28;20064;-74
2023/01/05 07:23:15;;;;;;;17.10;3.35;;;9.40;99.90;;;;;;4955186;28;20100;-73
2023/01/05 07:25:41;;;;;;;18.23;4.53;;;9.40;99.90;;;;;;4992293;28;20061;-75
2023/01/05 07:28:06;;;;;;;20.73;4.43;;;9.40;99.90;;;;;;4959379;28;20133;-76
2023/01/05 07:30:32;;;;;;;19.60;3.72;;;9.40;99.90;;;;;;4957392;28;20112;-74
2023/01/05 07:32:59;;;;;;;15.20;3.78;;;9.40;99.90;;;;;;4960634;28;20037;-75
2023/01/05 07:35:25;;;;;;;14.68;3.63;;;9.40;99.90;;;;;;4975548;28;20042;-74
2023/01/05 07:37:51;;;;;;;17.85;4.93;;;9.40;99.90;;;;;;4975343;28;20034;-75
2023/01/05 07:40:16;;;;;;;18.77;4.75;;;9.40;99.90;;;;;;4959302;28;20041;-74
2023/01/05 07:42:42;;;;;;;20.23;4.65;;;9.50;99.90;;;;;;4975752;28;20030;-75
2023/01/05 07:45:08;;;;;;;22.52;4.15;;;9.40;99.90;;;;;;4975439;28;20121;-74
2023/01/05 07:47:34;;;;;;;19.50;4.40;;;9.40;99.90;;;;;;4975188;28;20030;-75
2023/01/05 07:50:00;;;;;;;18.38;4.18;;;9.50;99.90;;;;;;4959204;28;20073;-75
2023/01/05 07:52:29;;;;;;;18.60;3.92;;;9.50;99.90;;;;;;4975285;28;20034;-74
2023/01/05 07:54:54;;;;;;;17.98;4.03;;;9.50;99.90;;;;;;4975306;28;20266;-75
2023/01/05 07:57:20;;;;;;;18.33;3.90;;;9.50;99.90;;;;;;4958910;28;20030;-75
2023/01/05 07:59:45;;;;;;;24.13;4.22;;;9.50;99.90;;;;;;4975322;28;20061;-74
2023/01/05 08:02:11;;;;;;;17.38;3.95;;;9.50;99.90;;;;;;4975085;28;20133;-75
2023/01/05 08:04:37;;;;;;;17.10;3.58;;;9.50;99.90;;;;;;4959092;28;20041;-75
2023/01/05 08:07:09;;;;;;;20.52;3.92;;;9.50;99.90;;;;;;4975330;28;20046;-75
2023/01/05 08:12:20;;;;;;;21.00;4.15;;;9.50;99.90;;;;;;4975132;28;20098;-75
2023/01/05 08:14:45;;;;;;;20.40;4.30;;;9.50;99.90;;;;;;4975362;28;20467;-75
2023/01/05 08:17:11;;;;;;;21.70;5.18;;;9.50;99.90;;;;;;4975056;28;20488;-74
2023/01/05 08:19:37;;;;;;;20.13;4.30;;;9.50;99.90;;;;;;4975150;28;20153;-74
2023/01/05 08:22:02;;;;;;;22.80;4.20;;;9.50;99.90;;;;;;4975011;28;20034;-75
2023/01/05 08:24:28;;;;;;;18.30;4.03;;;9.50;99.90;;;;;;4958825;28;20405;-75
2023/01/05 08:26:54;;;;;;;19.48;3.95;;;9.50;99.90;;;;;;4958530;28;20051;-74
2023/01/05 08:29:20;;;;;;;17.63;3.80;;;9.50;99.90;;;;;;4992369;28;20049;-75
2023/01/05 08:31:46;;;;;;;17.65;4.20;;;9.50;99.90;;;;;;4992296;28;20035;-74
2023/01/05 08:34:12;;;;;;;16.08;3.60;;;9.50;99.90;;;;;;4975262;28;20509;-75
2023/01/05 08:36:38;;;;;;;23.35;4.45;;;9.50;99.90;;;;;;4958795;28;20039;-75
2023/01/05 08:39:05;;;;;;;19.98;4.85;;;9.50;99.90;;;;;;4974802;28;20046;-74
2023/01/05 08:41:34;;;;;;;17.67;5.25;;;9.50;99.90;;;;;;4958511;28;20034;-74
2023/01/05 08:44:02;;;;;;;23.13;5.38;;;9.50;99.90;;;;;;4992370;28;20046;-74
2023/01/05 08:46:34;;;;;;;21.80;5.75;;;9.50;99.90;;;;;;4992427;28;20042;-76
2023/01/05 08:49:02;;;;;;;20.70;5.75;;;9.50;99.90;;;;;;4975541;28;20342;-76
2023/01/05 08:51:30;;;;;;;22.75;4.50;;;9.50;99.90;;;;;;4993112;28;20041;-75
2023/01/05 08:53:56;;;;;;;19.40;4.50;;;9.50;99.90;;;;;;4974812;28;20039;-75
2023/01/05 08:56:25;;;;;;;21.00;4.70;;;9.50;99.90;;;;;;4958515;28;20057;-75
2023/01/05 08:58:54;;;;;;;22.65;4.90;;;9.60;99.90;;;;;;4974341;28;20042;-75
2023/01/05 09:01:23;;;;;;;20.33;4.97;;;9.60;99.90;;;;;;4958966;28;20046;-75
2023/01/05 09:03:48;;;;;;;16.38;4.78;;;9.60;99.90;;;;;;4974552;28;20134;-75
2023/01/05 09:06:14;;;;;;;26.08;4.80;;;9.60;99.90;;;;;;4974688;28;20110;-75
2023/01/05 09:08:42;;;;;;;17.77;4.05;;;9.60;99.90;;;;;;4958200;28;20042;-75
2023/01/05 09:11:18;;;;;;;23.00;4.47;;;9.50;99.90;;;;;;4974866;28;20057;-75
2023/01/05 09:13:52;;;;;;;22.85;4.85;;;9.60;99.90;;;;;;4958711;28;20034;-75
2023/01/05 09:16:21;;;;;;;17.98;4.60;;;9.60;99.90;;;;;;4974943;28;20458;-75
2023/01/05 09:18:47;;;;;;;20.33;4.80;;;9.60;99.90;;;;;;4958111;28;20121;-75
2023/01/05 09:21:14;;;;;;;23.17;4.70;;;9.60;99.90;;;;;;4958196;28;20093;-75
2023/01/05 09:23:40;;;;;;;22.95;5.75;;;9.60;99.90;;;;;;4958659;28;20561;-74
2023/01/05 09:26:08;;;;;;;19.27;4.63;;;9.60;99.90;;;;;;4958457;28;20042;-75
2023/01/05 09:28:35;;;;;;;17.52;4.05;;;9.60;99.90;;;;;;4958002;28;20408;-74
2023/01/05 09:31:13;;;;;;;13.90;3.63;;;9.60;99.90;;;;;;4974334;28;20074;-75
2023/01/05 09:33:40;;;;;;;18.95;4.13;;;9.60;99.90;;;;;;4974359;28;20436;-75
2023/01/05 09:36:07;;;;;;;23.55;3.90;;;9.70;99.90;;;;;;4958436;28;20074;-75
2023/01/05 09:38:32;;;;;;;15.18;3.95;;;9.70;99.90;;;;;;4958764;28;20053;-75
2023/01/05 09:41:30;;;;;;;14.85;3.97;;;9.80;99.90;;;;;;4977700;28;20047;-75
2023/01/05 09:43:59;;;;;;;18.73;4.93;;;9.80;99.90;;;;;;4985725;28;20061;-75
2023/01/05 09:46:35;;;;;;;17.52;4.15;;;9.80;99.90;;;;;;4977660;28;20038;-75
2023/01/05 09:49:03;;;;;;;16.95;4.30;;;9.80;99.90;;;;;;4977989;28;20054;-73
2023/01/05 09:51:29;;;;;;;16.70;3.83;;;9.80;99.90;;;;;;4977610;28;20053;-74
2023/01/05 09:53:56;;;;;;;19.90;3.53;;;9.90;99.90;;;;;;4977862;28;20042;-74
2023/01/05 09:56:35;;;;;;;16.95;3.50;;;9.80;99.90;;;;;;4977502;28;20121;-73
2023/01/05 09:59:19;;;;;;;14.18;3.10;;;9.90;99.90;;;;;;4977330;28;20053;-74
2023/01/05 10:01:47;;;;;;;21.55;4.05;;;9.90;99.90;;;;;;4977549;28;20046;-74
2023/01/05 10:04:16;;;;;;;18.60;3.65;;;9.90;99.90;;;;;;4977407;28;20104;-74
2023/01/05 10:06:46;;;;;;;19.98;3.67;;;9.90;99.90;;;;;;4961422;28;20421;-74
2023/01/05 10:09:25;;;;;;;15.70;3.72;;;10.00;99.90;;;;;;4976766;28;20172;-73
2023/01/05 10:14:48;;;;;;;19.58;3.83;;;10.00;99.90;;;;;;4994723;28;20054;-74
2023/01/05 10:17:19;;;;;;;14.32;3.22;;;10.10;99.90;;;;;;4976850;28;20229;-74
2023/01/05 10:19:46;;;;;;;13.55;3.13;;;10.10;99.90;;;;;;4976946;28;20042;-74
2023/01/05 10:22:18;;;;;;;17.83;4.15;;;10.00;99.90;;;;;;4977000;28;20054;-73
2023/01/05 10:25:01;;;;;;;16.35;4.13;;;10.10;99.90;;;;;;4977135;28;20078;-74
2023/01/05 10:27:54;;;;;;;14.82;3.35;;;10.10;99.90;;;;;;4976823;28;20042;-74
2023/01/05 10:30:24;;;;;;;16.92;3.78;;;10.20;99.90;;;;;;4977020;28;20039;-73
2023/01/05 10:33:02;;;;;;;18.83;4.05;;;10.20;99.90;;;;;;4960660;28;20054;-74
2023/01/05 10:35:49;;;;;;;15.70;3.78;;;10.20;99.90;;;;;;4960796;28;20041;-74
2023/01/05 10:38:30;;;;;;;13.13;3.00;;;10.30;99.90;;;;;;4976566;28;20046;-74
2023/01/05 10:41:13;;;;;;;16.35;3.80;;;10.30;99.90;;;;;;4960816;28;20049;-74
2023/01/05 10:44:03;;;;;;;20.13;4.65;;;10.30;99.90;;;;;;4976726;28;20051;-74
2023/01/05 10:46:29;;;;;;;17.40;3.80;;;10.40;99.90;;;;;;4976807;28;20053;-74
2023/01/05 10:48:54;;;;;;;15.35;3.90;;;10.40;99.90;;;;;;4959964;28;20450;-73
2023/01/05 10:51:20;;;;;;;19.83;4.53;;;10.40;99.90;;;;;;4959552;28;20093;-74
2023/01/05 10:53:46;;;;;;;20.73;5.22;;;10.50;99.90;;;;;;4976686;28;20039;-74
2023/01/05 10:56:15;;;;;;;21.13;5.57;;;10.50;99.90;;;;;;4960213;28;20038;-73
2023/01/05 10:58:43;;;;;;;17.50;5.43;;;10.40;99.90;;;;;;4993574;28;20073;-74
2023/01/05 11:01:25;;;;;;;19.10;4.80;;;10.50;99.90;;;;;;4993680;28;20046;-74
2023/01/05 11:04:16;;;;;;;17.48;4.85;;;10.50;99.90;;;;;;4976355;28;20069;-74
2023/01/05 11:06:42;;;;;;;16.95;4.78;;;10.50;99.90;;;;;;4991750;28;20054;-74
2023/01/05 11:09:25;;;;;;;16.05;5.28;;;10.50;99.90;;;;;;4975906;28;20075;-74
2023/01/05 11:12:02;;;;;;;17.52;4.13;;;10.50;99.90;;;;;;4976105;28;20112;-73
2023/01/05 11:14:34;;;;;;;15.32;4.22;;;10.50;99.90;;;;;;4976226;28;20057;-74
2023/01/05 11:17:06;;;;;;;19.88;4.75;;;10.40;99.90;;;;;;4959920;28;20046;-74
2023/01/05 11:19:40;;;;;;;20.30;4.03;;;10.40;99.90;;;;;;4975979;28;20161;-74
2023/01/05 11:22:35;;;;;;;17.95;4.13;;;10.40;99.90;;;;;;4993338;28;20054;-74
2023/01/05 11:25:24;;;;;;;16.67;4.55;;;10.30;99.90;;;;;;4976135;28;20045;-73
2023/01/05 11:28:12;;;;;;;18.85;5.13;;;10.30;99.90;;;;;;4959446;28;20046;-73
2023/01/05 11:31:02;;;;;;;14.70;4.03;;;10.30;99.90;;;;;;4975988;28;20046;-73
2023/01/05 11:33:29;;;;;;;17.30;4.95;;;10.30;99.90;;;;;;4959705;28;20539;-74
2023/01/05 11:35:59;;;;;;;16.95;4.45;;;10.30;99.90;;;;;;4959468;28;20128;-74
2023/01/05 11:38:30;;;;;;;20.67;5.43;;;10.20;99.90;;;;;;4975359;28;20045;-73
2023/01/05 11:40:57;;;;;;;19.45;5.30;;;10.20;99.90;;;;;;4959481;28;20050;-73
2023/01/05 11:43:29;;;;;;;18.23;4.90;;;10.20;99.90;;;;;;4959645;28;20062;-74
2023/01/05 11:46:02;;;;;;;18.33;5.13;;;10.20;99.90;;;;;;4975691;28;20049;-73
2023/01/05 11:48:30;;;;;;;;;;;10.20;99.90;;;;;;4959244;28;20074;-73
2023/01/05 11:50:57;;;;;;;13.43;3.92;;;10.10;99.90;;;;;;4975320;28;19917;-73
2023/01/05 11:53:31;;;;;;;15.18;4.13;;;10.10;99.90;;;;;;4959191;28;20475;-73
2023/01/05 11:56:02;;;;;;;19.88;3.38;;;10.00;99.90;;;;;;4975584;28;20074;-73
2023/01/05 11:58:42;;;;;;;19.80;3.90;;;10.00;99.90;;;;;;4975388;28;20042;-73
2023/01/05 12:01:09;;;;;;;16.33;4.20;;;10.00;99.90;;;;;;4975052;28;20501;-73
2023/01/05 12:04:00;;;;;;;17.30;4.00;;;9.90;99.90;;;;;;4975519;28;20050;-73
2023/01/05 12:06:50;;;;;;;18.13;4.05;;;9.90;99.90;;;;;;4959273;28;20056;-74
2023/01/05 12:09:36;;;;;;;20.83;3.60;;;9.90;99.90;;;;;;4992363;28;20054;-73
2023/01/05 12:12:28;;;;;;;22.13;4.30;;;9.90;99.90;;;;;;4975054;28;20112;-73
2023/01/05 12:15:15;;;;;;;19.08;3.67;;;9.90;99.90;;;;;;4959252;28;20097;-74
2023/01/05 12:17:59;;;;;;;18.75;3.72;;;9.90;99.90;;;;;;4975089;28;20124;-73
2023/01/05 12:20:29;;;;;;;15.90;3.92;;;9.90;99.90;;;;;;4958746;28;20129;-74
2023/01/05 12:23:35;;;;;;;16.42;3.50;;;9.90;99.90;;;;;;4975408;28;20072;-74
2023/01/05 12:26:25;;;;;;;16.08;3.90;;;9.90;99.90;;;;;;4975002;28;20046;-73
2023/01/05 12:29:06;;;;;;;19.15;4.22;;;9.90;99.90;;;;;;4958987;28;20500;-74
2023/01/05 12:32:13;;;;;;;20.17;5.03;;;10.00;99.90;;;;;;4975122;28;20423;-73
2023/01/05 12:35:16;;;;;;;20.98;4.50;;;10.00;99.90;;;;;;4974861;28;20170;-74
2023/01/05 12:38:00;;;;;;;18.38;3.97;;;10.00;99.90;;;;;;4958754;28;20046;-73
2023/01/05 12:40:39;;;;;;;18.17;4.15;;;10.10;99.90;;;;;;4975083;28;20085;-74
2023/01/05 12:43:16;;;;;;;17.45;3.90;;;10.00;99.90;;;;;;4975106;28;20443;-74
2023/01/05 12:46:03;;;;;;;16.58;4.18;;;10.10;99.90;;;;;;4975098;28;20074;-74
2023/01/05 12:48:44;;;;;;;17.00;4.13;;;10.10;99.90;;;;;;4974378;28;20555;-74
2023/01/05 12:51:33;;;;;;;15.50;3.60;;;10.10;99.90;;;;;;4958689;28;20489;-73
2023/01/05 12:54:10;;;;;;;18.73;3.97;;;10.10;99.90;;;;;;4992321;28;20081;-73
2023/01/05 12:56:52;;;;;;;19.17;4.05;;;10.10;99.90;;;;;;4958666;28;20034;-73
2023/01/05 12:59:33;;;;;;;21.90;4.03;;;10.20;99.90;;;;;;4958423;28;20038;-74
2023/01/05 13:02:14;;;;;;;23.00;5.28;;;10.20;99.90;;;;;;4974566;28;20062;-75
2023/01/05 13:04:49;;;;;;;19.65;5.07;;;10.20;99.90;;;;;;4974709;28;20050;-74
2023/01/05 13:07:21;;;;;;;19.08;4.05;;;10.20;99.90;;;;;;4958362;28;20050;-74
2023/01/05 13:09:56;;;;;;;22.08;4.93;;;10.10;99.90;;;;;;4974620;28;20093;-74
2023/01/05 13:12:22;;;;;;;19.17;4.18;;;10.10;99.90;;;;;;4974554;28;20034;-74
2023/01/05 13:15:16;;;;;;;20.77;4.80;;;10.10;99.90;;;;;;4976538;28;20047;-74
2023/01/05 13:17:44;;;;;;;;;;;10.10;99.90;;;;;;4962218;28;20054;-74
2023/01/05 13:20:28;;;;;;;23.75;4.30;;;10.00;99.90;;;;;;4995657;28;20439;-73
2023/01/05 13:23:03;;;;;;;19.92;4.68;;;10.10;99.90;;;;;;4961931;28;20046;-74
2023/01/05 13:25:38;;;;;;;20.20;4.10;;;10.00;99.90;;;;;;4978134;28;20382;-74
2023/01/05 13:28:04;;;;;;;19.95;4.50;;;10.10;99.90;;;;;;4978312;28;20374;-74
2023/01/05 13:30:41;;;;;;;19.13;4.10;;;10.10;99.90;;;;;;4978124;28;20089;-73
2023/01/05 13:33:29;;;;;;;18.45;3.85;;;10.10;99.90;;;;;;4978082;28;20038;-73
2023/01/05 13:36:29;;;;;;;19.35;4.32;;;10.10;99.90;;;;;;4978253;28;20493;-74
2023/01/05 13:39:23;;;;;;;21.27;4.22;;;10.10;99.90;;;;;;4977868;28;20053;-75